Time;durP1;ratioP1;P1;durP2;ratioP2;P2;SDS_P1;SDS_P2;PMS_P1;PMS_P2;Temp;Humidity;BMP_temperature;BMP_pressure;BME280_temperature;BME280_humidity;BME280_pressure;Samples;Min_cycle;Max_cycle;Signal;HPM_P1;HPM_P2
2021/01/24 00:00:28;;;;;;;4.82;4.10;;;;;;;2.67;78.70;97713.78;4957791;28;20174;-33
2021/01/24 00:02:53;;;;;;;4.60;3.85;;;;;;;2.62;78.53;97729.91;4974736;28;20074;-33
2021/01/24 00:05:19;;;;;;;5.57;4.47;;;;;;;2.69;78.35;97726.56;4974950;28;20442;-33
2021/01/24 00:07:45;;;;;;;7.20;5.60;;;;;;;2.62;78.49;97730.75;4974952;28;20435;-33
2021/01/24 00:10:12;;;;;;;5.30;4.40;;;;;;;2.54;78.55;97740.91;4974889;28;20046;-33
2021/01/24 00:12:38;;;;;;;5.05;4.43;;;;;;;2.55;78.91;97737.50;4974840;28;20097;-33
2021/01/24 00:15:05;;;;;;;6.10;5.22;;;;;;;2.51;78.53;97745.97;4974768;28;20035;-33
2021/01/24 00:17:31;;;;;;;7.20;6.07;;;;;;;2.51;78.77;97745.97;4974376;28;20034;-33
2021/01/24 00:19:58;;;;;;;8.07;6.50;;;;;;;2.50;78.87;97751.09;4974923;28;20037;-33
2021/01/24 00:22:23;;;;;;;8.02;6.68;;;;;;;2.51;78.70;97743.44;4975062;28;20101;-33
2021/01/24 00:24:49;;;;;;;8.82;7.20;;;;;;;2.54;79.28;97746.03;4975096;28;20436;-33
2021/01/24 00:27:14;;;;;;;8.65;6.95;;;;;;;2.57;78.99;97747.75;4973609;28;20514;-33
2021/01/24 00:29:40;;;;;;;10.77;8.30;;;;;;;2.54;78.40;97748.59;4974727;28;20034;-33
2021/01/24 00:32:05;;;;;;;12.43;8.38;;;;;;;2.53;78.51;97753.69;4974520;28;20458;-33
2021/01/24 00:34:31;;;;;;;11.43;9.02;;;;;;;2.49;78.52;97757.03;4957892;28;20038;-33
2021/01/24 00:36:56;;;;;;;14.43;10.98;;;;;;;2.43;78.74;97761.22;4973390;28;20390;-33
2021/01/24 00:39:21;;;;;;;14.38;11.05;;;;;;;2.46;78.46;97764.66;4974610;28;20041;-33
2021/01/24 00:41:47;;;;;;;16.30;11.70;;;;;;;2.58;78.81;97764.81;4974542;28;20375;-33
2021/01/24 00:44:12;;;;;;;17.10;12.95;;;;;;;2.51;78.95;97763.88;4974646;28;20054;-33
2021/01/24 00:46:38;;;;;;;16.95;12.57;;;;;;;2.54;78.79;97768.19;4957269;28;20038;-33
2021/01/24 00:49:03;;;;;;;19.95;14.50;;;;;;;2.52;78.57;97772.44;4974432;28;20035;-33
2021/01/24 00:51:29;;;;;;;17.00;13.63;;;;;;;2.45;78.10;97768.94;4973051;28;20546;-33
2021/01/24 00:53:54;;;;;;;18.13;12.57;;;;;;;2.56;79.28;97776.75;4974357;28;20507;-33
2021/01/24 00:56:20;;;;;;;15.40;12.10;;;;;;;2.52;79.11;97777.53;4973101;28;20509;-33
2021/01/24 00:58:45;;;;;;;13.65;11.27;;;;;;;2.48;78.77;97774.09;4974531;28;20494;-33
2021/01/24 01:01:10;;;;;;;14.57;11.50;;;;;;;2.46;78.71;97780.00;4973103;28;20034;-33
2021/01/24 01:03:36;;;;;;;16.13;12.93;;;;;;;2.47;78.60;97776.63;4974780;28;20041;-33
2021/01/24 01:06:01;;;;;;;15.75;12.45;;;;;;;2.56;79.35;97792.09;4974457;28;20552;-33
2021/01/24 01:08:27;;;;;;;15.80;11.23;;;;;;;2.58;78.81;97787.81;4973232;28;20528;-33
2021/01/24 01:10:52;;;;;;;16.52;12.70;;;;;;;2.48;78.91;97793.69;4974467;28;20038;-33
2021/01/24 01:13:19;;;;;;;16.45;13.02;;;;;;;2.46;79.39;97791.13;4974030;28;20031;-33
2021/01/24 01:15:44;;;;;;;16.88;13.60;;;;;;;2.51;79.04;97798.84;4974347;28;20042;-33
2021/01/24 01:18:10;;;;;;;18.38;14.15;;;;;;;2.49;79.12;97810.75;4973146;28;20498;-33
2021/01/24 01:20:35;;;;;;;18.70;13.45;;;;;;;2.44;79.11;97810.69;4974502;28;20050;-33
2021/01/24 01:23:01;;;;;;;18.75;14.88;;;;;;;2.41;79.05;97818.31;4974298;28;20027;-33
2021/01/24 01:25:26;;;;;;;19.05;12.70;;;;;;;2.35;79.04;97820.78;4974331;28;20050;-33
2021/01/24 01:27:52;;;;;;;16.00;11.50;;;;;;;2.32;78.97;97821.59;4973078;28;20038;-33
2021/01/24 01:30:19;;;;;;;17.33;11.98;;;;;;;2.34;79.60;97832.72;4956957;28;20049;-34
2021/01/24 01:32:44;;;;;;;14.25;10.70;;;;;;;2.38;79.34;97826.81;4973699;28;20042;-33
2021/01/24 01:35:10;;;;;;;17.30;11.88;;;;;;;2.49;79.09;97826.09;4973410;28;20039;-33
2021/01/24 01:37:36;;;;;;;19.42;12.02;;;;;;;2.46;79.26;97838.81;4974784;28;20383;-33
2021/01/24 01:40:02;;;;;;;13.82;10.88;;;;;;;2.43;78.66;97842.22;4957145;28;20104;-33
2021/01/24 01:42:28;;;;;;;14.25;12.30;;;;;;;2.47;79.28;97830.31;4956809;28;20035;-33
2021/01/24 01:44:53;;;;;;;15.85;11.43;;;;;;;2.42;79.30;97838.78;4973938;28;20041;-33
2021/01/24 01:47:23;;;;;;;16.90;12.05;;;;;;;2.37;79.10;97837.00;4973977;28;20038;-32
2021/01/24 01:49:56;;;;;;;15.10;11.25;;;;;;;2.38;79.10;97852.38;4956644;28;20146;-33
2021/01/24 01:52:24;;;;;;;16.42;11.93;;;;;;;2.35;79.06;97859.13;4973876;28;20035;-33
2021/01/24 01:54:50;;;;;;;15.63;12.38;;;;;;;2.31;79.21;97860.78;4974087;28;20069;-33
2021/01/24 01:57:16;;;;;;;14.38;10.80;;;;;;;2.31;79.04;97854.84;4976616;28;20035;-33
2021/01/24 01:59:42;;;;;;;14.07;11.10;;;;;;;2.28;79.37;97859.06;4977395;28;20150;-33
2021/01/24 02:02:23;;;;;;;15.07;11.02;;;;;;;2.25;79.32;97859.00;4975775;28;20061;-33
2021/01/24 02:05:10;;;;;;;14.18;10.98;;;;;;;2.30;78.90;97871.84;4960008;28;20034;-33
2021/01/24 02:07:44;;;;;;;12.25;10.00;;;;;;;2.23;78.99;97860.69;4959761;28;20035;-33
2021/01/24 02:10:34;;;;;;;16.38;8.93;;;;;;;2.29;79.24;97865.03;4976018;28;20031;-33
2021/01/24 02:13:35;;;;;;;14.48;10.13;;;;;;;2.26;79.24;97870.09;4975970;28;20471;-33
2021/01/24 02:16:03;;;;;;;13.32;9.85;;;;;;;2.31;79.53;97868.47;4917689;28;20058;-33
2021/01/24 02:18:33;;;;;;;13.45;8.88;;;;;;;2.21;78.67;97864.91;4975686;28;20129;-33
2021/01/24 02:21:27;;;;;;;11.20;8.80;;;;;;;2.24;79.21;97874.34;4977338;28;20043;-33
2021/01/24 02:23:56;;;;;;;10.70;8.60;;;;;;;2.23;79.38;97872.63;4976974;28;20447;-33
2021/01/24 02:26:21;;;;;;;10.77;8.38;;;;;;;2.23;78.96;97882.84;4976933;28;20035;-32
2021/01/24 02:29:14;;;;;;;13.35;8.90;;;;;;;2.17;78.87;97880.19;4975758;28;20045;-33
2021/01/24 02:31:41;;;;;;;10.43;7.70;;;;;;;2.23;79.24;97885.41;4977362;28;20540;-33
2021/01/24 02:34:08;;;;;;;11.88;8.27;;;;;;;2.19;79.20;97891.28;4976644;28;20066;-33
2021/01/24 02:36:36;;;;;;;12.10;7.45;;;;;;;2.16;79.10;97897.22;4976339;28;20027;-33
2021/01/24 02:39:03;;;;;;;10.57;6.80;;;;;;;2.26;79.42;97895.66;4976276;28;20383;-33
2021/01/24 02:41:29;;;;;;;10.15;8.02;;;;;;;2.28;78.72;97894.84;4976479;28;20041;-33
2021/01/24 02:43:55;;;;;;;9.65;6.85;;;;;;;2.27;79.31;97907.59;4976298;28;20035;-33
2021/01/24 02:46:21;;;;;;;9.70;7.45;;;;;;;2.20;78.65;97904.09;4976266;28;20039;-33
2021/01/24 02:48:47;;;;;;;11.20;7.45;;;;;;;2.15;78.80;97909.97;4976556;28;20038;-33
2021/01/24 02:51:13;;;;;;;12.52;7.75;;;;;;;2.21;78.69;97912.63;4976421;28;20031;-32
2021/01/24 02:53:41;;;;;;;11.75;7.05;;;;;;;2.16;78.89;97917.69;4976407;28;20085;-33
2021/01/24 02:56:07;;;;;;;11.95;8.02;;;;;;;2.21;79.17;97917.75;4976463;28;20046;-33
2021/01/24 02:58:33;;;;;;;8.27;7.15;;;;;;;2.25;79.29;97924.63;4976061;28;20125;-33
2021/01/24 03:00:59;;;;;;;11.50;7.68;;;;;;;2.18;79.10;97920.25;4974857;28;20130;-33
2021/01/24 03:03:24;;;;;;;10.98;8.05;;;;;;;2.25;79.29;97924.63;4958863;28;20054;-33
2021/01/24 03:05:50;;;;;;;10.07;7.28;;;;;;;2.20;78.39;97921.13;4958862;28;20507;-33
2021/01/24 03:08:17;;;;;;;10.93;7.88;;;;;;;2.18;78.79;97933.88;4974719;28;20047;-33
2021/01/24 03:10:42;;;;;;;10.15;7.78;;;;;;;2.13;79.42;97938.06;4975939;28;20105;-33
2021/01/24 03:13:08;;;;;;;12.52;7.72;;;;;;;2.20;79.19;97936.47;4974742;28;20491;-33
2021/01/24 03:15:35;;;;;;;11.40;7.88;;;;;;;2.21;79.08;97950.97;4974818;28;20026;-33
2021/01/24 03:18:03;;;;;;;11.98;7.07;;;;;;;2.12;79.31;97952.53;4975868;28;20035;-33
2021/01/24 03:20:34;;;;;;;12.98;8.00;;;;;;;2.10;79.20;97951.63;4958747;28;20506;-33
2021/01/24 03:23:01;;;;;;;10.85;7.90;;;;;;;2.18;79.27;97951.75;4976051;28;20102;-33
2021/01/24 03:25:28;;;;;;;8.93;7.50;;;;;;;2.11;79.02;97955.06;4975776;28;20046;-33
2021/01/24 03:27:54;;;;;;;11.38;8.02;;;;;;;2.13;79.09;97964.47;4975949;28;20077;-33
2021/01/24 03:30:20;;;;;;;11.77;8.13;;;;;;;2.11;79.50;97960.19;4975647;28;20063;-33
2021/01/24 03:32:45;;;;;;;9.10;7.13;;;;;;;2.17;79.25;97970.53;4958388;28;20031;-33
2021/01/24 03:35:11;;;;;;;10.45;7.28;;;;;;;2.19;79.33;97975.63;4975543;28;20088;-33
2021/01/24 03:37:37;;;;;;;9.68;7.18;;;;;;;2.18;79.37;97967.09;4975566;28;20043;-34
2021/01/24 03:40:03;;;;;;;9.32;7.55;;;;;;;2.27;79.52;97979.16;4973942;28;20057;-33
2021/01/24 03:42:29;;;;;;;8.60;6.93;;;;;;;2.25;78.96;97984.25;4975482;28;20034;-33
2021/01/24 03:44:55;;;;;;;9.88;7.47;;;;;;;2.21;79.08;97989.31;4975447;28;20046;-32
2021/01/24 03:47:21;;;;;;;8.52;6.47;;;;;;;2.16;78.98;97984.13;4974311;28;20047;-33
2021/01/24 03:49:47;;;;;;;9.07;7.25;;;;;;;2.19;79.46;97988.41;4975500;28;20046;-33
2021/01/24 03:52:12;;;;;;;9.88;7.32;;;;;;;2.16;79.00;97996.91;4974666;28;20039;-33
2021/01/24 03:54:37;;;;;;;8.18;6.70;;;;;;;2.10;79.66;97994.25;4975308;28;20121;-33
2021/01/24 03:57:03;;;;;;;8.23;6.40;;;;;;;2.10;79.14;97992.53;4975245;28;20042;-33
2021/01/24 03:59:28;;;;;;;8.43;6.05;;;;;;;2.07;79.16;97995.06;4974929;28;20473;-33
2021/01/24 04:01:54;;;;;;;8.35;6.15;;;;;;;2.17;79.31;98000.31;4974032;28;20046;-33
2021/01/24 04:04:19;;;;;;;8.35;6.30;;;;;;;2.14;79.33;98001.13;4957961;28;20039;-33
2021/01/24 04:06:45;;;;;;;8.65;6.70;;;;;;;2.13;79.43;98002.81;4973820;28;20034;-33
2021/01/24 04:09:10;;;;;;;6.88;5.65;;;;;;;2.11;79.46;98004.47;4974001;28;20088;-33
2021/01/24 04:11:36;;;;;;;7.80;6.00;;;;;;;2.11;79.66;98001.06;4957392;28;20035;-33
2021/01/24 04:14:01;;;;;;;9.43;5.82;;;;;;;2.13;80.00;98005.38;4975046;28;20364;-32
2021/01/24 04:16:27;;;;;;;7.53;5.53;;;;;;;2.02;79.52;98016.25;4975093;28;20042;-33
2021/01/24 04:18:52;;;;;;;8.18;5.80;;;;;;;2.07;79.70;98023.16;4956515;28;20062;-33
2021/01/24 04:21:18;;;;;;;6.10;5.47;;;;;;;2.04;79.70;98017.13;4975015;28;20169;-33
2021/01/24 04:23:43;;;;;;;7.68;6.13;;;;;;;2.01;79.61;98015.38;4957825;28;20027;-33
2021/01/24 04:26:09;;;;;;;8.18;6.40;;;;;;;2.08;79.77;98021.47;4974348;28;20113;-33
2021/01/24 04:28:35;;;;;;;8.48;6.72;;;;;;;1.98;79.70;98021.31;4973313;28;20097;-33
2021/01/24 04:31:00;;;;;;;9.20;6.30;;;;;;;2.03;79.90;98021.38;4973810;28;20479;-32
2021/01/24 04:33:25;;;;;;;8.07;6.47;;;;;;;2.07;79.61;98033.38;4973794;28;20401;-33
2021/01/24 04:35:51;;;;;;;7.55;5.95;;;;;;;2.05;79.32;98032.50;4974608;28;20035;-33
2021/01/24 04:38:19;;;;;;;6.88;5.53;;;;;;;2.14;79.58;98039.47;4957190;28;20047;-33
2021/01/24 04:40:45;;;;;;;7.18;5.72;;;;;;;2.19;79.42;98032.72;4974654;28;20395;-33
2021/01/24 04:43:11;;;;;;;8.43;6.22;;;;;;;2.13;79.60;98038.59;4974072;28;20047;-33
2021/01/24 04:45:37;;;;;;;7.78;6.07;;;;;;;2.10;79.35;98035.97;4974650;28;20058;-33
2021/01/24 04:48:03;;;;;;;6.57;5.88;;;;;;;2.05;79.57;98037.59;4974420;28;20475;-33
2021/01/24 04:50:29;;;;;;;9.45;6.93;;;;;;;2.07;79.65;98041.06;4957162;28;20521;-33
2021/01/24 04:52:56;;;;;;;6.35;5.43;;;;;;;2.05;79.53;98046.94;4973422;28;20031;-33
2021/01/24 04:55:23;;;;;;;8.73;6.97;;;;;;;1.97;79.60;98052.81;4956762;28;20027;-33
2021/01/24 04:57:48;;;;;;;7.97;6.38;;;;;;;1.95;79.51;98044.25;4957182;28;20035;-33
2021/01/24 05:00:16;;;;;;;7.32;6.30;;;;;;;1.97;79.36;98046.81;4974361;28;20038;-32
2021/01/24 05:02:41;;;;;;;7.85;6.65;;;;;;;1.96;79.89;98060.41;4957312;28;20495;-33
2021/01/24 05:05:09;;;;;;;8.85;6.85;;;;;;;1.99;79.74;98063.03;4974196;28;20042;-33
2021/01/24 05:07:34;;;;;;;7.85;6.35;;;;;;;2.00;79.76;98066.47;4974611;28;20041;-33
2021/01/24 05:09:59;;;;;;;8.48;7.28;;;;;;;1.97;79.59;98067.25;4974321;28;20414;-33
2021/01/24 05:12:28;;;;;;;7.72;6.45;;;;;;;1.99;79.48;98070.69;4974142;28;20495;-33
2021/01/24 05:14:58;;;;;;;8.65;7.28;;;;;;;2.02;79.65;98078.44;4974322;28;20065;-33
2021/01/24 05:17:24;;;;;;;8.93;7.43;;;;;;;1.98;79.43;98074.09;4974691;28;20062;-33
2021/01/24 05:19:49;;;;;;;10.38;8.30;;;;;;;1.96;80.02;98088.53;4973914;28;20098;-32
2021/01/24 05:22:15;;;;;;;12.02;9.38;;;;;;;1.93;79.60;98085.94;4973244;28;20042;-33
2021/01/24 05:24:41;;;;;;;10.77;9.25;;;;;;;1.91;79.17;98079.94;4974010;28;20419;-33
2021/01/24 05:27:12;;;;;;;10.55;8.40;;;;;;;1.91;79.59;98091.00;4974226;28;20113;-33
2021/01/24 05:29:41;;;;;;;10.20;8.75;;;;;;;1.95;79.85;98089.34;4974526;28;20041;-33
2021/01/24 05:32:07;;;;;;;11.68;8.23;;;;;;;2.01;79.77;98088.63;4977448;28;20450;-33
2021/01/24 05:34:32;;;;;;;12.00;9.57;;;;;;;1.98;79.89;98089.41;4978187;28;20039;-33
2021/01/24 05:36:59;;;;;;;13.23;9.75;;;;;;;1.88;79.44;98102.88;4978154;28;20074;-33
2021/01/24 05:39:27;;;;;;;14.07;9.40;;;;;;;1.90;79.65;98108.88;4977520;28;20035;-33
2021/01/24 05:41:54;;;;;;;13.98;9.80;;;;;;;1.94;79.66;98110.66;4960557;28;20479;-33
2021/01/24 05:44:21;;;;;;;14.13;9.38;;;;;;;2.00;79.77;98107.34;4976225;28;20121;-33
2021/01/24 05:46:48;;;;;;;12.32;9.50;;;;;;;2.02;79.27;98114.22;4977703;28;20115;-33
2021/01/24 05:49:20;;;;;;;13.35;9.95;;;;;;;1.92;79.39;98115.72;4977689;28;20117;-33
2021/01/24 05:51:59;;;;;;;14.80;9.30;;;;;;;1.89;79.67;98123.31;4976168;28;20038;-33
2021/01/24 05:54:46;;;;;;;13.52;10.13;;;;;;;1.88;79.96;98133.53;4977485;28;20088;-33
2021/01/24 05:57:13;;;;;;;16.95;10.73;;;;;;;1.91;79.71;98139.53;4960116;28;20035;-32
2021/01/24 05:59:55;;;;;;;12.43;9.65;;;;;;;1.90;79.81;98137.81;4977552;28;20081;-33
2021/01/24 06:02:26;;;;;;;14.88;9.65;;;;;;;1.88;80.05;98143.75;4977249;28;20050;-33
2021/01/24 06:04:52;;;;;;;13.70;10.75;;;;;;;1.88;79.87;98143.75;4976492;28;20045;-33
2021/01/24 06:07:18;;;;;;;13.35;10.18;;;;;;;1.87;79.69;98147.97;4977222;28;20035;-33
2021/01/24 06:09:45;;;;;;;14.32;10.25;;;;;;;1.89;79.72;98153.13;4977552;28;20097;-33
2021/01/24 06:12:12;;;;;;;15.98;8.95;;;;;;;1.87;79.46;98158.19;4977179;28;20118;-33
2021/01/24 06:14:39;;;;;;;14.50;10.77;;;;;;;1.85;79.34;98154.78;4977139;28;20042;-33
2021/01/24 06:17:33;;;;;;;17.75;11.10;;;;;;;1.83;79.66;98157.28;4977074;28;20042;-33
2021/01/24 06:20:01;;;;;;;12.55;9.65;;;;;;;1.87;79.32;98163.28;4977075;28;20440;-32
2021/01/24 06:22:34;;;;;;;15.95;9.50;;;;;;;1.83;79.41;98170.03;4976650;28;20037;-33
2021/01/24 06:25:05;;;;;;;11.77;9.48;;;;;;;1.83;79.44;98174.31;4977125;28;20395;-33
2021/01/24 06:27:37;;;;;;;16.00;10.15;;;;;;;1.85;79.45;98174.31;4975745;28;20039;-33
2021/01/24 06:30:08;;;;;;;13.45;10.23;;;;;;;1.83;79.38;98181.97;4976883;28;20041;-33
2021/01/24 06:32:34;;;;;;;17.08;10.98;;;;;;;1.87;79.53;98177.78;4976962;28;20043;-33
2021/01/24 06:35:42;;;;;;;14.32;9.13;;;;;;;1.89;79.43;98188.91;4975436;28;20035;-33
2021/01/24 06:38:08;;;;;;;20.27;11.50;;;;;;;1.93;79.38;98191.53;4882697;29;20436;-33
2021/01/24 06:40:43;;;;;;;14.68;10.45;;;;;;;1.87;79.47;98193.09;4937381;28;20051;-33
2021/01/24 06:43:08;;;;;;;14.95;9.80;;;;;;;1.86;79.60;98184.59;4975820;28;20042;-33
2021/01/24 06:45:39;;;;;;;14.18;10.85;;;;;;;1.92;79.61;98194.06;4976544;28;20032;-33
2021/01/24 06:48:06;;;;;;;17.52;10.82;;;;;;;1.94;78.88;98197.53;4959424;28;20035;-33
2021/01/24 06:50:39;;;;;;;15.00;10.65;;;;;;;1.92;79.79;98207.69;4959012;28;20379;-33
2021/01/24 06:53:05;;;;;;;13.93;11.00;;;;;;;1.98;79.71;98209.53;4975296;28;20150;-33
2021/01/24 06:55:32;;;;;;;16.08;11.25;;;;;;;1.96;79.35;98213.72;4959208;28;20038;-33
2021/01/24 06:57:58;;;;;;;12.95;9.98;;;;;;;1.93;78.95;98214.53;4976111;28;20046;-33
2021/01/24 07:00:24;;;;;;;17.30;9.98;;;;;;;1.94;79.13;98226.47;4958836;28;20509;-33
2021/01/24 07:02:50;;;;;;;14.93;10.57;;;;;;;1.94;79.44;98230.75;4976432;28;20086;-33
2021/01/24 07:05:26;;;;;;;14.48;11.70;;;;;;;2.00;79.54;98230.00;4975937;28;20031;-33
2021/01/24 07:07:55;;;;;;;13.70;10.25;;;;;;;1.98;79.21;98229.97;4976611;28;20042;-33
2021/01/24 07:10:39;;;;;;;14.98;10.70;;;;;;;1.96;79.06;98239.28;4958439;28;20035;-32
2021/01/24 07:13:23;;;;;;;18.00;11.45;;;;;;;1.91;79.33;98241.75;4958800;28;20138;-33
2021/01/24 07:15:59;;;;;;;22.27;10.02;;;;;;;2.00;79.26;98242.78;4975873;28;20070;-33
2021/01/24 07:18:25;;;;;;;16.52;10.35;;;;;;;1.92;79.38;98243.47;4976236;28;20035;-33
2021/01/24 07:20:52;;;;;;;17.48;12.60;;;;;;;1.90;79.46;98249.38;4976125;28;20039;-33
2021/01/24 07:23:18;;;;;;;13.95;10.15;;;;;;;1.95;79.56;98256.31;4974762;28;20066;-33
2021/01/24 07:25:44;;;;;;;15.90;9.50;;;;;;;1.94;79.18;98256.31;4974679;28;20534;-32
2021/01/24 07:28:18;;;;;;;20.10;11.07;;;;;;;2.05;79.53;98262.50;4975766;28;20039;-33
2021/01/24 07:30:43;;;;;;;14.77;11.07;;;;;;;2.05;79.27;98265.06;4974931;28;20038;-33
2021/01/24 07:33:09;;;;;;;13.65;10.75;;;;;;;2.02;79.31;98271.78;4958447;28;20274;-32
2021/01/24 07:35:35;;;;;;;14.00;9.75;;;;;;;1.95;79.17;98274.19;4974477;28;20443;-33
2021/01/24 07:38:01;;;;;;;14.80;10.95;;;;;;;1.99;79.42;98280.25;4974437;28;20089;-33
2021/01/24 07:40:27;;;;;;;16.65;10.90;;;;;;;2.03;79.12;98286.28;4975612;28;20062;-33
2021/01/24 07:42:57;;;;;;;13.82;10.93;;;;;;;1.94;79.43;98284.41;4975854;28;20034;-33
2021/01/24 07:45:23;;;;;;;13.68;10.18;;;;;;;1.96;79.20;98293.81;4958217;28;20030;-33
2021/01/24 07:47:49;;;;;;;15.95;10.68;;;;;;;1.98;79.22;98293.84;4975350;28;20038;-33
2021/01/24 07:50:15;;;;;;;18.00;10.43;;;;;;;1.91;79.39;98294.56;4975267;28;20435;-33
2021/01/24 07:52:41;;;;;;;18.73;11.20;;;;;;;1.85;79.21;98296.94;4958228;28;20030;-39
2021/01/24 07:55:09;;;;;;;15.35;11.50;;;;;;;1.90;79.24;98309.00;4974441;28;20047;-33
2021/01/24 07:57:35;;;;;;;15.05;9.75;;;;;;;1.88;78.91;98312.34;4975799;28;20097;-33
2021/01/24 08:00:04;;;;;;;17.55;11.52;;;;;;;1.89;79.28;98312.38;4975129;28;20035;-33
2021/01/24 08:02:29;;;;;;;16.65;10.27;;;;;;;1.88;79.09;98313.22;4973544;28;20491;-33
2021/01/24 08:04:55;;;;;;;19.33;12.13;;;;;;;1.87;78.90;98310.63;4938642;29;20095;-33
2021/01/24 08:07:21;;;;;;;17.23;11.02;;;;;;;1.95;79.80;98325.31;4938363;29;20041;-33
2021/01/24 08:09:47;;;;;;;17.33;10.13;;;;;;;1.98;79.40;98324.50;4955297;29;20035;-33
2021/01/24 08:12:13;;;;;;;18.58;11.23;;;;;;;2.00;78.96;98322.00;4955726;29;20063;-33
2021/01/24 08:14:39;;;;;;;13.68;10.30;;;;;;;2.05;79.03;98331.50;4938893;29;20507;-33
2021/01/24 08:17:08;;;;;;;17.40;11.25;;;;;;;2.03;79.07;98338.25;4938448;29;20134;-33
2021/01/24 08:19:35;;;;;;;15.48;9.98;;;;;;;1.99;79.25;98328.78;4955930;29;20035;-33
2021/01/24 08:22:01;;;;;;;17.13;12.02;;;;;;;1.96;78.77;98337.25;4938418;29;20036;-33
2021/01/24 08:24:27;;;;;;;13.65;9.55;;;;;;;1.89;79.06;98344.75;4954428;29;20035;-33
2021/01/24 08:26:52;;;;;;;14.60;9.70;;;;;;;1.88;79.22;98337.91;4954709;29;20042;-33
2021/01/24 08:29:19;;;;;;;13.70;9.88;;;;;;;1.92;79.20;98340.56;4955826;29;20039;-33
2021/01/24 08:31:45;;;;;;;18.30;9.80;;;;;;;1.94;78.80;98349.13;4955325;29;20042;-33
2021/01/24 08:34:14;;;;;;;16.35;9.90;;;;;;;1.93;79.14;98344.00;4955399;29;20071;-32
2021/01/24 08:36:40;;;;;;;16.67;10.30;;;;;;;1.95;79.54;98340.63;4955303;29;20035;-33
2021/01/24 08:39:06;;;;;;;14.23;9.93;;;;;;;2.02;79.05;98346.75;4955383;29;20126;-33
2021/01/24 08:41:37;;;;;;;15.55;10.77;;;;;;;1.98;78.96;98348.38;4955350;29;20178;-33
2021/01/24 08:44:07;;;;;;;16.40;10.60;;;;;;;1.89;78.62;98345.59;4955327;29;20156;-33
2021/01/24 08:46:40;;;;;;;15.18;10.25;;;;;;;1.94;79.19;98348.28;4954198;29;20535;-33
2021/01/24 08:49:13;;;;;;;14.85;10.07;;;;;;;1.91;78.95;98350.75;4954347;29;20495;-33
2021/01/24 08:51:56;;;;;;;15.97;9.60;;;;;;;1.87;78.89;98354.91;4937869;29;20046;-33
2021/01/24 08:54:26;;;;;;;14.88;9.85;;;;;;;1.92;78.92;98345.69;4955007;29;20282;-33
2021/01/24 08:57:06;;;;;;;16.38;10.65;;;;;;;1.94;78.66;98349.13;4954918;29;20035;-33
2021/01/24 08:59:32;;;;;;;15.00;10.60;;;;;;;2.00;78.94;98355.22;4953691;29;20491;-33
2021/01/24 09:01:57;;;;;;;15.98;9.85;;;;;;;1.93;78.73;98360.19;4954966;28;20050;-33
2021/01/24 09:04:32;;;;;;;13.35;9.27;;;;;;;1.88;78.94;98364.31;4954707;28;20151;-33
2021/01/24 09:07:12;;;;;;;18.77;11.85;;;;;;;1.86;78.97;98366.00;4958866;29;20049;-33
2021/01/24 09:09:43;;;;;;;19.75;10.00;;;;;;;1.85;78.66;98379.59;4957950;29;20038;-33
2021/01/24 09:12:11;;;;;;;15.77;10.00;;;;;;;1.85;78.74;98371.03;4959067;29;20134;-33
2021/01/24 09:14:36;;;;;;;14.90;9.82;;;;;;;1.88;78.98;98386.44;4941867;29;20031;-33
2021/01/24 09:17:04;;;;;;;14.88;10.40;;;;;;;1.93;79.04;98380.63;4942193;29;20047;-32
2021/01/24 09:19:30;;;;;;;18.45;10.80;;;;;;;1.93;78.94;98375.50;4958541;29;20067;-33
2021/01/24 09:21:56;;;;;;;17.35;10.10;;;;;;;1.94;78.85;98386.63;4957707;29;20062;-33
2021/01/24 09:24:22;;;;;;;16.73;10.45;;;;;;;1.93;78.91;98379.78;4958526;29;20093;-33
2021/01/24 09:26:48;;;;;;;15.25;10.02;;;;;;;2.01;78.88;98395.28;4958766;29;20063;-33
2021/01/24 09:29:14;;;;;;;19.42;10.32;;;;;;;2.04;78.43;98391.09;4958683;29;20530;-33
2021/01/24 09:31:39;;;;;;;18.02;11.73;;;;;;;2.02;78.53;98397.03;4958723;29;20058;-33
2021/01/24 09:34:05;;;;;;;19.27;10.85;;;;;;;2.01;78.99;98396.13;4958562;29;20039;-33
2021/01/24 09:36:31;;;;;;;17.35;11.48;;;;;;;2.00;78.70;98399.53;4958871;29;20075;-33
2021/01/24 09:38:57;;;;;;;19.25;11.23;;;;;;;2.03;78.65;98403.81;4958126;29;20479;-33
2021/01/24 09:41:22;;;;;;;16.33;11.60;;;;;;;2.02;78.86;98412.34;4957317;28;20054;-33
2021/01/24 09:43:50;;;;;;;18.25;11.75;;;;;;;1.99;78.79;98405.44;4941215;29;20053;-34
2021/01/24 09:46:16;;;;;;;16.75;10.90;;;;;;;2.04;79.00;98410.66;4941179;29;20067;-33
2021/01/24 09:48:41;;;;;;;24.88;12.23;;;;;;;2.02;78.89;98413.19;4941128;29;20451;-33
2021/01/24 09:51:08;;;;;;;17.02;12.05;;;;;;;2.00;78.67;98408.88;4958246;29;20039;-33
2021/01/24 09:53:36;;;;;;;22.60;12.30;;;;;;;2.04;78.69;98426.00;4957867;29;20443;-33
2021/01/24 09:56:06;;;;;;;20.30;12.88;;;;;;;2.04;78.19;98426.00;4941545;29;20070;-33
2021/01/24 09:58:33;;;;;;;15.75;11.52;;;;;;;2.03;78.72;98429.38;4958281;29;20382;-33
2021/01/24 10:00:59;;;;;;;17.23;11.63;;;;;;;2.03;78.40;98429.38;4958173;29;20039;-34
2021/01/24 10:03:24;;;;;;;16.20;11.18;;;;;;;2.07;78.74;98426.09;4941076;29;20159;-35
2021/01/24 10:05:50;;;;;;;17.55;12.02;;;;;;;2.05;78.13;98420.94;4958193;29;20050;-33
2021/01/24 10:08:16;;;;;;;16.38;11.88;;;;;;;2.11;78.86;98426.19;4940538;29;20040;-34
2021/01/24 10:10:42;;;;;;;19.33;11.68;;;;;;;2.17;79.06;98427.16;4940832;29;20399;-33
2021/01/24 10:13:07;;;;;;;22.10;12.65;;;;;;;2.18;78.45;98431.47;4957433;29;20122;-33
2021/01/24 10:15:33;;;;;;;20.73;12.50;;;;;;;2.18;78.61;98437.41;4958165;29;20504;-33
2021/01/24 10:17:58;;;;;;;18.10;11.50;;;;;;;2.22;78.81;98439.22;4956812;28;20055;-33
2021/01/24 10:20:24;;;;;;;18.27;12.20;;;;;;;2.21;78.68;98437.50;4957439;29;20031;-33
2021/01/24 10:22:49;;;;;;;16.13;12.02;;;;;;;2.23;78.65;98446.06;4957593;29;20031;-33
2021/01/24 10:25:15;;;;;;;19.33;11.98;;;;;;;2.23;79.02;98442.66;4957644;29;20110;-33
2021/01/24 10:27:41;;;;;;;21.52;12.23;;;;;;;2.23;78.39;98440.09;4957266;29;20041;-33
2021/01/24 10:30:08;;;;;;;21.05;13.00;;;;;;;2.22;78.23;98443.50;4958061;29;20035;-33
2021/01/24 10:32:33;;;;;;;19.00;13.00;;;;;;;2.21;78.67;98445.16;4956973;29;20039;-33
2021/01/24 10:34:59;;;;;;;18.52;12.77;;;;;;;2.25;78.70;98452.09;4957146;29;20466;-33
2021/01/24 10:37:24;;;;;;;25.20;13.20;;;;;;;2.31;78.93;98447.97;4957365;29;20043;-33
2021/01/24 10:39:50;;;;;;;23.70;12.88;;;;;;;2.34;78.86;98446.34;4956969;29;20503;-33
2021/01/24 10:42:15;;;;;;;19.85;12.77;;;;;;;2.42;78.25;98441.41;4956956;29;20043;-33
2021/01/24 10:44:40;;;;;;;29.25;13.70;;;;;;;2.48;78.27;98445.78;4940052;29;20042;-33
2021/01/24 10:47:06;;;;;;;21.83;12.80;;;;;;;2.56;78.32;98444.28;4957132;29;20039;-33
2021/01/24 10:49:31;;;;;;;19.70;13.30;;;;;;;2.58;78.00;98440.91;4956912;29;20503;-33
2021/01/24 10:51:57;;;;;;;22.10;13.55;;;;;;;2.64;77.90;98442.75;4957104;29;20102;-33
2021/01/24 10:54:22;;;;;;;19.02;13.25;;;;;;;2.61;77.86;98440.09;4957003;29;20035;-33
2021/01/24 10:56:48;;;;;;;19.15;12.32;;;;;;;2.63;77.34;98441.00;4939962;29;20074;-33
2021/01/24 10:59:13;;;;;;;24.10;13.13;;;;;;;2.65;77.72;98443.63;4957029;29;20502;-34
2021/01/24 11:01:39;;;;;;;24.88;13.10;;;;;;;2.66;77.88;98440.19;4956627;28;20491;-34
2021/01/24 11:04:04;;;;;;;21.38;13.15;;;;;;;2.69;77.79;98437.72;4956179;29;20042;-34
2021/01/24 11:06:30;;;;;;;20.65;14.73;;;;;;;2.70;77.63;98442.88;4939961;29;20113;-33
2021/01/24 11:08:55;;;;;;;21.15;13.43;;;;;;;2.72;78.26;98454.03;4956967;29;20045;-33
2021/01/24 11:11:22;;;;;;;25.00;14.45;;;;;;;2.74;77.43;98442.09;4955613;29;20392;-33
2021/01/24 11:13:48;;;;;;;20.50;13.48;;;;;;;2.76;77.98;98443.81;4956271;29;20435;-34
2021/01/24 11:16:13;;;;;;;21.90;14.25;;;;;;;2.77;77.35;98454.13;4955492;29;20043;-33
2021/01/24 11:18:39;;;;;;;21.27;14.05;;;;;;;2.81;77.99;98447.38;4955659;29;20503;-34
2021/01/24 11:21:04;;;;;;;20.25;14.75;;;;;;;2.85;78.25;98449.16;4956620;29;20511;-33
2021/01/24 11:23:30;;;;;;;23.80;15.30;;;;;;;2.90;78.47;98444.97;4939711;29;20040;-33
2021/01/24 11:25:55;;;;;;;20.90;14.57;;;;;;;2.91;78.98;98444.16;4956687;29;20436;-33
2021/01/24 11:28:21;;;;;;;22.75;15.00;;;;;;;2.92;78.07;98448.44;4956355;28;20038;-34
2021/01/24 11:30:46;;;;;;;23.55;14.25;;;;;;;2.91;77.93;98453.53;4956632;29;20134;-33
2021/01/24 11:33:11;;;;;;;22.00;14.32;;;;;;;2.90;78.08;98447.53;4956724;29;20053;-34